createdAt,value
2018-06-28T00:01:52.021Z,4.47
2018-06-28T00:04:20.121Z,4.00
2018-06-28T00:06:49.876Z,4.07
2018-06-28T00:09:17.976Z,4.95
2018-06-28T00:11:47.179Z,4.30
2018-06-28T00:14:15.297Z,3.95
2018-06-28T00:16:44.412Z,5.45
2018-06-28T00:19:12.531Z,4.10
2018-06-28T00:21:41.414Z,4.12
2018-06-28T00:24:09.568Z,4.80
2018-06-28T00:26:37.770Z,5.00
2018-06-28T00:29:07.084Z,4.87
2018-06-28T00:31:35.984Z,4.90
2018-06-28T00:34:04.119Z,4.12
2018-06-28T00:36:32.288Z,4.70
2018-06-28T00:39:00.411Z,4.10
2018-06-28T00:41:28.534Z,4.32
2018-06-28T00:43:56.664Z,4.05
2018-06-28T00:46:24.785Z,4.35
2018-06-28T00:48:53.291Z,4.35
2018-06-28T00:51:22.198Z,4.20
2018-06-28T00:53:50.320Z,4.07
2018-06-28T00:56:19.402Z,4.72
2018-06-28T00:58:47.529Z,4.20
2018-06-28T01:01:16.416Z,4.57
2018-06-28T01:03:45.295Z,4.43
2018-06-28T01:06:14.992Z,5.20
2018-06-28T01:08:43.094Z,4.60
2018-06-28T01:11:11.211Z,5.05
2018-06-28T01:13:39.367Z,4.57
2018-06-28T01:16:07.550Z,5.03
2018-06-28T01:18:35.732Z,4.45
2018-06-28T01:21:04.342Z,4.82
2018-06-28T01:23:32.505Z,5.00
2018-06-28T01:26:00.624Z,4.70
2018-06-28T01:28:29.002Z,4.93
2018-06-28T01:30:57.954Z,4.60
2018-06-28T01:33:26.064Z,4.90
2018-06-28T01:35:54.945Z,5.00
2018-06-28T01:38:23.064Z,4.72
2018-06-28T01:40:51.211Z,5.10
2018-06-28T01:43:31.182Z,4.72
2018-06-28T01:45:59.295Z,4.00
2018-06-28T01:48:27.425Z,4.60
2018-06-28T01:50:55.773Z,5.07
2018-06-28T01:53:24.668Z,4.60
2018-06-28T01:55:54.447Z,4.80
2018-06-28T01:58:22.575Z,4.25
2018-06-28T02:00:50.715Z,4.60
2018-06-28T02:03:19.634Z,5.12
2018-06-28T02:05:48.102Z,4.65
2018-06-28T02:08:16.416Z,4.53
2018-06-28T02:10:45.135Z,4.75
2018-06-28T02:13:13.547Z,4.87
2018-06-28T02:15:41.684Z,5.20
2018-06-28T02:18:10.014Z,4.00
2018-06-28T02:20:38.233Z,5.05
2018-06-28T02:23:06.338Z,4.87
2018-06-28T02:25:35.798Z,5.43
2018-06-28T02:28:03.918Z,5.07
2018-06-28T02:30:33.517Z,4.20
2018-06-28T02:33:01.726Z,4.55
2018-06-28T02:35:29.958Z,4.95
2018-06-28T02:37:58.098Z,4.68
2018-06-28T02:40:26.480Z,4.65
2018-06-28T02:42:54.594Z,5.45
2018-06-28T02:45:23.464Z,4.40
2018-06-28T02:47:51.593Z,5.25
2018-06-28T02:50:19.834Z,5.80
2018-06-28T02:52:48.713Z,4.97
2018-06-28T02:55:17.805Z,4.90
2018-06-28T02:57:46.701Z,4.65
2018-06-28T03:00:14.824Z,5.30
2018-06-28T03:02:42.947Z,4.62
2018-06-28T03:05:11.940Z,5.55
2018-06-28T03:07:40.836Z,4.93
2018-06-28T03:10:08.968Z,6.22
2018-06-28T03:12:37.152Z,6.10
2018-06-28T03:15:05.266Z,5.37
2018-06-28T03:17:33.466Z,5.70
2018-06-28T03:20:01.580Z,4.85
2018-06-28T03:22:29.716Z,5.72
2018-06-28T03:24:58.164Z,5.00
2018-06-28T03:27:27.307Z,5.43
2018-06-28T03:29:57.245Z,4.90
2018-06-28T03:32:25.647Z,5.35
2018-06-28T03:34:54.777Z,5.43
2018-06-28T03:37:22.979Z,4.97
2018-06-28T03:39:51.199Z,4.75
2018-06-28T03:42:20.091Z,6.12
2018-06-28T03:44:49.044Z,5.80
2018-06-28T03:47:17.984Z,4.68
2018-06-28T03:49:47.425Z,9.00
2018-06-28T03:52:15.564Z,5.32
2018-06-28T03:54:51.692Z,5.75
2018-06-28T03:57:20.951Z,6.10
2018-06-28T03:59:51.302Z,5.40
2018-06-28T04:02:19.435Z,6.35
2018-06-28T04:04:47.555Z,5.93
2018-06-28T04:07:15.714Z,5.43
2018-06-28T04:09:44.461Z,5.30
2018-06-28T04:12:13.394Z,6.00
2018-06-28T04:14:41.525Z,5.30
2018-06-28T04:17:09.993Z,5.80
2018-06-28T04:19:38.096Z,6.45
2018-06-28T04:22:06.229Z,5.97
2018-06-28T04:24:34.386Z,5.20
2018-06-28T04:27:02.490Z,6.37
2018-06-28T04:29:31.172Z,6.05
2018-06-28T04:32:00.074Z,5.97
2018-06-28T04:34:28.922Z,5.78
2018-06-28T04:36:57.048Z,4.80
2018-06-28T04:39:25.607Z,5.35
2018-06-28T04:41:54.498Z,5.95
2018-06-28T04:44:23.493Z,6.15
2018-06-28T04:46:52.387Z,5.70
2018-06-28T04:49:21.267Z,5.95
2018-06-28T04:51:50.167Z,5.45
2018-06-28T04:54:19.051Z,5.60
2018-06-28T04:56:47.665Z,6.07
2018-06-28T04:59:15.808Z,5.10
2018-06-28T05:01:44.572Z,6.40
2018-06-28T05:04:12.735Z,5.62
2018-06-28T05:06:40.842Z,6.15
2018-06-28T05:09:10.667Z,5.55
2018-06-28T05:11:39.517Z,6.25
2018-06-28T05:14:07.676Z,6.30
2018-06-28T05:16:35.773Z,5.62
2018-06-28T05:19:03.889Z,5.70
2018-06-28T05:21:32.764Z,6.10
2018-06-28T05:24:01.628Z,5.87
2018-06-28T05:26:29.764Z,6.20
2018-06-28T05:28:57.998Z,7.03
2018-06-28T05:31:26.128Z,5.95
2018-06-28T05:33:55.274Z,6.90
2018-06-28T05:36:23.440Z,6.15
2018-06-28T05:38:52.328Z,5.75
2018-06-28T05:41:21.219Z,6.30
2018-06-28T05:43:50.099Z,5.00
2018-06-28T05:46:18.252Z,5.28
2018-06-28T05:48:46.364Z,6.05
2018-06-28T05:51:15.913Z,6.10
2018-06-28T05:53:44.034Z,5.53
2018-06-28T05:56:13.606Z,5.55
2018-06-28T05:58:42.259Z,6.60
2018-06-28T06:01:11.610Z,5.62
2018-06-28T06:03:40.742Z,5.85
2018-06-28T06:06:08.877Z,6.43
2018-06-28T06:08:37.077Z,5.90
2018-06-28T06:11:06.546Z,5.93
2018-06-28T06:13:36.169Z,6.40
2018-06-28T06:16:04.290Z,5.43
2018-06-28T06:18:32.640Z,7.03
2018-06-28T06:21:00.880Z,6.97
2018-06-28T06:23:29.439Z,6.47
2018-06-28T06:25:58.505Z,6.03
2018-06-28T06:28:27.359Z,6.50
2018-06-28T06:30:55.803Z,6.47
2018-06-28T06:33:23.924Z,6.32
2018-06-28T06:35:52.083Z,6.37
2018-06-28T06:38:20.190Z,6.20
2018-06-28T06:40:48.580Z,6.75
2018-06-28T06:43:16.689Z,6.00
2018-06-28T06:45:45.531Z,5.57
2018-06-28T06:48:14.641Z,6.10
2018-06-28T06:50:42.764Z,6.20
2018-06-28T06:53:10.896Z,6.40
2018-06-28T06:55:39.145Z,5.87
2018-06-28T06:58:08.012Z,7.32
2018-06-28T07:00:36.152Z,6.70
2018-06-28T07:03:04.340Z,6.57
2018-06-28T07:05:33.451Z,5.85
2018-06-28T07:08:02.429Z,6.47
2018-06-28T07:10:30.896Z,6.00
2018-06-28T07:12:59.738Z,6.85
2018-06-28T07:15:28.657Z,5.40
2018-06-28T07:17:56.774Z,6.22
2018-06-28T07:20:24.917Z,5.35
2018-06-28T07:22:53.118Z,6.25
2018-06-28T07:25:23.966Z,5.68
2018-06-28T07:27:54.131Z,6.55
2018-06-28T07:30:23.353Z,5.78
2018-06-28T07:32:52.307Z,5.65
2018-06-28T07:35:20.540Z,5.82
2018-06-28T07:37:48.907Z,5.45
2018-06-28T07:40:17.737Z,5.97
2018-06-28T07:42:47.611Z,6.07
2018-06-28T07:45:17.884Z,5.68
2018-06-28T07:47:46.788Z,5.25
2018-06-28T07:50:16.988Z,5.05
2018-06-28T07:52:47.449Z,5.10
2018-06-28T07:55:16.645Z,6.10
2018-06-28T07:57:45.583Z,4.55
2018-06-28T08:00:13.715Z,5.20
2018-06-28T08:02:42.800Z,5.35
2018-06-28T08:05:11.743Z,5.18
2018-06-28T08:07:39.870Z,3.90
2018-06-28T08:10:07.984Z,4.37
2018-06-28T08:12:36.163Z,4.70
2018-06-28T08:15:05.245Z,5.20
2018-06-28T08:17:33.413Z,3.50
2018-06-28T08:20:03.862Z,4.93
2018-06-28T08:22:32.296Z,4.77
2018-06-28T08:25:01.038Z,4.10
2018-06-28T08:27:29.178Z,4.47
2018-06-28T08:29:57.306Z,3.70
2018-06-28T08:32:26.152Z,4.13
2018-06-28T08:34:54.334Z,4.47
2018-06-28T08:37:22.483Z,3.40
2018-06-28T08:39:50.591Z,3.90
2018-06-28T08:42:18.721Z,3.63
2018-06-28T08:44:46.852Z,3.77
2018-06-28T08:47:18.001Z,4.53
2018-06-28T08:49:47.031Z,3.03
2018-06-28T08:52:15.158Z,3.83
2018-06-28T08:54:45.230Z,3.63
2018-06-28T08:57:13.383Z,3.30
2018-06-28T08:59:42.737Z,3.63
2018-06-28T09:02:10.835Z,3.80
2018-06-28T09:04:39.812Z,3.90
2018-06-28T09:07:11.315Z,3.93
2018-06-28T09:09:40.840Z,3.70
2018-06-28T09:12:12.724Z,4.80
2018-06-28T09:14:43.208Z,4.63
2018-06-28T09:17:12.797Z,4.27
2018-06-28T09:19:43.201Z,4.67
2018-06-28T09:22:15.987Z,5.00
2018-06-28T09:24:45.569Z,4.30
2018-06-28T09:27:15.238Z,4.37
2018-06-28T09:29:43.348Z,3.90
2018-06-28T09:32:11.630Z,4.77
2018-06-28T09:34:42.314Z,5.23
2018-06-28T09:37:10.422Z,5.13
2018-06-28T09:39:38.591Z,4.90
2018-06-28T09:42:06.724Z,4.40
2018-06-28T09:47:19.694Z,4.67
2018-06-28T09:49:51.222Z,4.40
2018-06-28T09:54:52.100Z,4.60
2018-06-28T09:57:22.371Z,5.13
2018-06-28T09:59:52.719Z,5.00
2018-06-28T10:02:24.517Z,4.50
2018-06-28T10:04:52.766Z,4.20
2018-06-28T10:07:21.187Z,4.53
2018-06-28T10:09:49.580Z,4.13
2018-06-28T10:12:18.722Z,4.30
2018-06-28T10:14:47.479Z,4.63
2018-06-28T10:17:32.865Z,4.20
2018-06-28T10:20:01.824Z,4.50
2018-06-28T10:22:31.221Z,4.73
2018-06-28T10:24:59.408Z,4.80
2018-06-28T10:27:27.558Z,5.40
2018-06-28T10:29:55.664Z,4.67
2018-06-28T10:32:25.026Z,4.80
2018-06-28T10:34:53.287Z,5.03
2018-06-28T10:37:25.011Z,4.73
2018-06-28T10:39:53.184Z,4.73
2018-06-28T10:42:26.546Z,4.73
2018-06-28T10:44:54.688Z,5.07
2018-06-28T10:47:26.483Z,4.60
2018-06-28T10:49:55.382Z,4.47
2018-06-28T10:52:25.284Z,4.20
2018-06-28T10:54:55.452Z,4.20
2018-06-28T10:57:23.614Z,5.60
2018-06-28T10:59:53.260Z,5.27
2018-06-28T11:02:22.630Z,5.70
2018-06-28T11:04:53.121Z,4.67
2018-06-28T11:07:21.340Z,5.80
2018-06-28T11:09:49.420Z,4.53
2018-06-28T11:12:17.536Z,5.00
2018-06-28T11:14:45.651Z,5.10
2018-06-28T11:17:14.053Z,5.77
2018-06-28T11:19:47.063Z,4.57
2018-06-28T11:22:16.462Z,6.00
2018-06-28T11:24:44.676Z,6.73
2018-06-28T11:27:13.795Z,7.73
2018-06-28T11:29:43.453Z,6.70
2018-06-28T11:32:12.750Z,6.60
2018-06-28T11:34:41.046Z,5.90
2018-06-28T11:37:10.166Z,5.90
2018-06-28T11:39:38.972Z,6.27
2018-06-28T11:42:07.087Z,6.67
2018-06-28T11:44:36.198Z,6.10
2018-06-28T11:47:05.111Z,7.10
2018-06-28T11:49:34.581Z,7.00
2018-06-28T11:52:02.695Z,7.20
2018-06-28T11:54:31.626Z,6.93
2018-06-28T11:56:59.750Z,6.80
2018-06-28T11:59:27.863Z,6.90
2018-06-28T12:01:55.987Z,6.30
2018-06-28T12:04:25.092Z,6.53
2018-06-28T12:06:53.230Z,6.70
2018-06-28T12:09:21.342Z,6.80
2018-06-28T12:11:49.454Z,7.60
2018-06-28T12:14:18.353Z,6.93
2018-06-28T12:16:47.318Z,7.43
2018-06-28T12:19:15.426Z,7.47
2018-06-28T12:21:43.546Z,6.67
2018-06-28T12:24:12.515Z,6.67
2018-06-28T12:26:40.626Z,6.60
2018-06-28T12:29:09.297Z,7.20
2018-06-28T12:31:37.435Z,6.90
2018-06-28T12:34:05.667Z,5.90
2018-06-28T12:36:33.814Z,7.13
2018-06-28T12:39:01.935Z,7.40
2018-06-28T12:41:30.101Z,8.27
2018-06-28T12:43:58.333Z,8.00
2018-06-28T12:46:26.499Z,9.63
2018-06-28T12:48:54.571Z,8.87
2018-06-28T12:51:22.688Z,8.30
2018-06-28T12:53:50.817Z,7.80
2018-06-28T12:56:19.008Z,9.83
2018-06-28T12:58:47.373Z,9.30
2018-06-28T13:01:15.494Z,8.27
2018-06-28T13:03:43.633Z,9.03
2018-06-28T13:06:11.756Z,9.63
2018-06-28T13:08:39.873Z,10.70
2018-06-28T13:11:08.747Z,8.93
2018-06-28T13:13:36.925Z,8.60
2018-06-28T13:16:04.998Z,9.43
2018-06-28T13:18:33.121Z,8.80
2018-06-28T13:21:01.236Z,9.30
2018-06-28T13:23:29.356Z,9.17
2018-06-28T13:25:58.294Z,9.13
2018-06-28T13:28:26.424Z,8.70
2018-06-28T13:30:54.570Z,7.77
2018-06-28T13:33:23.466Z,8.40
2018-06-28T13:35:53.157Z,8.53
2018-06-28T13:38:21.266Z,8.67
2018-06-28T13:40:49.454Z,9.57
2018-06-28T13:43:18.105Z,7.83
2018-06-28T13:45:47.089Z,8.23
2018-06-28T13:48:15.998Z,7.90
2018-06-28T13:50:44.894Z,9.40
2018-06-28T13:53:13.869Z,8.80
2018-06-28T13:55:42.827Z,9.60
2018-06-28T13:58:10.961Z,9.50
2018-06-28T14:00:39.078Z,9.60
2018-06-28T14:03:07.242Z,8.40
2018-06-28T14:05:37.186Z,9.10
2018-06-28T14:08:05.477Z,9.00
2018-06-28T14:10:34.394Z,8.87
2018-06-28T14:13:03.255Z,7.67
2018-06-28T14:15:32.140Z,8.20
2018-06-28T14:18:01.030Z,9.00
2018-06-28T14:20:29.749Z,9.10
2018-06-28T14:22:57.894Z,7.63
2018-06-28T14:25:26.076Z,7.73
2018-06-28T14:27:54.971Z,7.60
2018-06-28T14:30:23.073Z,7.73
2018-06-28T14:32:52.017Z,6.63
2018-06-28T14:35:20.198Z,7.53
2018-06-28T14:37:48.379Z,7.57
2018-06-28T14:40:18.066Z,7.10
2018-06-28T14:42:46.179Z,8.47
2018-06-28T14:45:15.366Z,8.13
2018-06-28T14:47:44.855Z,7.23
2018-06-28T14:50:13.014Z,7.60
2018-06-28T14:53:05.925Z,7.80
2018-06-28T14:55:34.878Z,7.50
2018-06-28T14:58:03.586Z,7.37
2018-06-28T15:00:32.456Z,7.50
2018-06-28T15:03:01.798Z,8.40
2018-06-28T15:05:33.351Z,7.17
2018-06-28T15:08:03.219Z,8.37
2018-06-28T15:10:32.115Z,8.40
2018-06-28T15:13:00.279Z,9.67
2018-06-28T15:15:28.781Z,8.73
2018-06-28T15:17:57.152Z,7.57
2018-06-28T15:20:26.172Z,9.33
2018-06-28T15:22:54.797Z,8.57
2018-06-28T15:25:23.007Z,8.97
2018-06-28T15:27:52.659Z,10.07
2018-06-28T15:30:21.702Z,9.73
2018-06-28T15:32:52.015Z,10.32
2018-06-28T15:35:20.208Z,8.75
2018-06-28T15:37:49.898Z,10.90
2018-06-28T15:40:18.548Z,10.05
2018-06-28T15:42:47.532Z,10.40
2018-06-28T15:45:16.823Z,11.23
2018-06-28T15:47:46.534Z,12.77
2018-06-28T15:50:17.581Z,12.00
2018-06-28T15:52:46.033Z,11.73
2018-06-28T15:55:14.754Z,11.70
2018-06-28T15:57:43.435Z,10.50
2018-06-28T16:00:11.589Z,11.65
2018-06-28T16:02:40.501Z,10.85
2018-06-28T16:05:09.921Z,10.60
2018-06-28T16:07:38.718Z,11.23
2018-06-28T16:10:07.823Z,12.15
2018-06-28T16:12:36.009Z,9.55
2018-06-28T16:15:04.720Z,10.43
2018-06-28T16:17:33.628Z,10.82
2018-06-28T16:20:01.777Z,11.82
2018-06-28T16:22:30.764Z,10.80
2018-06-28T16:24:59.858Z,10.30
2018-06-28T16:27:31.059Z,11.33
2018-06-28T16:29:59.230Z,11.32
2018-06-28T16:32:28.495Z,12.35
2018-06-28T16:34:57.462Z,10.87
2018-06-28T16:37:25.592Z,12.23
2018-06-28T16:39:53.738Z,11.43
2018-06-28T16:42:22.805Z,11.52
2018-06-28T16:44:51.068Z,10.53
2018-06-28T16:47:20.948Z,11.55
2018-06-28T16:49:49.835Z,11.43
2018-06-28T16:52:17.970Z,10.15
2018-06-28T16:54:46.157Z,10.97
2018-06-28T16:57:15.035Z,10.70
2018-06-28T16:59:44.012Z,9.10
2018-06-28T17:02:12.032Z,10.80
2018-06-28T17:04:42.657Z,8.70
2018-06-28T17:07:11.145Z,9.37
2018-06-28T17:09:39.278Z,8.67
2018-06-28T17:12:08.107Z,9.50
2018-06-28T17:14:36.250Z,9.30
2018-06-28T17:17:04.439Z,8.83
2018-06-28T17:19:32.524Z,9.30
2018-06-28T17:22:00.771Z,8.53
2018-06-28T17:24:29.217Z,10.23
2018-06-28T17:26:57.370Z,10.27
2018-06-28T17:29:26.317Z,9.90
2018-06-28T17:31:55.958Z,12.07
2018-06-28T17:34:27.131Z,10.60
2018-06-28T17:36:57.249Z,12.00
2018-06-28T17:39:26.005Z,12.17
2018-06-28T17:41:55.037Z,12.57
2018-06-28T17:44:27.179Z,14.80
2018-06-28T17:46:56.941Z,14.00
2018-06-28T17:49:25.079Z,12.75
2018-06-28T17:51:53.220Z,14.10
2018-06-28T17:54:43.351Z,12.35
2018-06-28T17:57:19.624Z,12.23
2018-06-28T17:59:49.524Z,12.13
2018-06-28T18:02:24.448Z,15.68
2018-06-28T18:04:58.247Z,13.40
2018-06-28T18:07:27.399Z,13.75
2018-06-28T18:09:55.519Z,14.55
2018-06-28T18:12:23.756Z,13.90
2018-06-28T18:14:53.672Z,14.13
2018-06-28T18:17:24.219Z,15.25
2018-06-28T18:19:53.147Z,14.43
2018-06-28T18:22:22.645Z,12.23
2018-06-28T18:24:52.464Z,15.40
2018-06-28T18:27:22.010Z,15.40
2018-06-28T18:29:53.371Z,12.82
2018-06-28T18:32:28.731Z,13.30
2018-06-28T18:34:57.699Z,14.68
2018-06-28T18:37:27.576Z,13.10
2018-06-28T18:39:56.299Z,14.73
2018-06-28T18:42:25.870Z,13.30
2018-06-28T18:44:54.659Z,12.93
2018-06-28T18:47:23.377Z,14.50
2018-06-28T18:49:51.544Z,13.98
2018-06-28T18:52:20.734Z,14.87
2018-06-28T18:54:49.892Z,13.68
2018-06-28T18:57:19.370Z,15.25
2018-06-28T18:59:48.369Z,14.27
2018-06-28T19:02:16.965Z,16.30
2018-06-28T19:04:45.200Z,17.43
2018-06-28T19:07:13.342Z,16.67
2018-06-28T19:09:43.785Z,16.37
2018-06-28T19:12:12.811Z,16.65
2018-06-28T19:14:56.597Z,18.70
2018-06-28T19:17:27.172Z,19.48
2018-06-28T19:19:55.589Z,18.02
2018-06-28T19:22:40.923Z,20.52
2018-06-28T19:25:10.201Z,17.60
2018-06-28T19:27:39.560Z,20.17
2018-06-28T19:30:08.005Z,22.37
2018-06-28T19:32:36.663Z,19.45
2018-06-28T19:35:06.315Z,21.02
2018-06-28T19:37:36.054Z,19.67
2018-06-28T19:40:20.454Z,18.25
2018-06-28T19:47:04.997Z,20.12
2018-06-28T19:49:44.467Z,20.80
2018-06-28T19:52:20.903Z,17.30
2018-06-28T19:54:56.281Z,13.38
2018-06-28T19:57:27.335Z,16.02
2018-06-28T19:59:57.793Z,12.50
2018-06-28T20:02:34.355Z,11.95
2018-06-28T20:05:04.746Z,12.40
2018-06-28T20:07:35.167Z,11.25
2018-06-28T20:10:08.420Z,10.95
2018-06-28T20:12:43.856Z,13.10
2018-06-28T20:15:23.532Z,13.62
2018-06-28T20:18:03.757Z,14.58
2018-06-28T20:20:36.297Z,14.45
2018-06-28T20:23:10.835Z,15.05
2018-06-28T20:25:43.060Z,14.63
2018-06-28T20:28:20.439Z,14.87
2018-06-28T20:30:58.183Z,15.80
2018-06-28T20:33:33.108Z,15.75
2018-06-28T20:36:08.238Z,17.12
2018-06-28T20:38:38.278Z,15.50
2018-06-28T20:41:09.870Z,16.57
2018-06-28T20:43:40.791Z,17.90
2018-06-28T20:46:12.342Z,20.43
2018-06-28T20:48:43.666Z,17.40
2018-06-28T20:51:14.356Z,18.67
2018-06-28T20:53:45.368Z,18.32
2018-06-28T20:56:16.416Z,17.52
2018-06-28T20:58:57.058Z,17.15
2018-06-28T21:01:31.548Z,15.85
2018-06-28T21:04:09.652Z,16.05
2018-06-28T21:06:46.115Z,15.75
2018-06-28T21:09:17.589Z,18.37
2018-06-28T21:11:47.368Z,15.58
2018-06-28T21:14:18.322Z,15.28
2018-06-28T21:16:48.486Z,16.23
2018-06-28T21:19:20.072Z,13.65
2018-06-28T21:21:50.650Z,10.05
2018-06-28T21:24:21.360Z,9.55
2018-06-28T21:26:52.633Z,10.88
2018-06-28T21:29:24.035Z,10.23
2018-06-28T21:31:54.575Z,9.88
2018-06-28T21:34:27.335Z,9.85
2018-06-28T21:36:58.489Z,9.83
2018-06-28T21:39:29.440Z,9.13
2018-06-28T21:42:02.729Z,10.88
2018-06-28T21:44:37.576Z,10.40
2018-06-28T21:50:00.210Z,11.18
2018-06-28T21:52:30.508Z,11.08
2018-06-28T21:55:07.605Z,11.75
2018-06-28T21:57:38.108Z,11.00
2018-06-28T22:00:08.980Z,10.70
2018-06-28T22:02:38.935Z,12.30
2018-06-28T22:05:09.415Z,12.63
2018-06-28T22:07:38.574Z,11.48
2018-06-28T22:10:09.527Z,13.45
2018-06-28T22:13:02.703Z,13.20
2018-06-28T22:15:44.581Z,13.32
2018-06-28T22:18:14.661Z,11.08
2018-06-28T22:20:58.957Z,11.70
2018-06-28T22:23:29.085Z,11.55
2018-06-28T22:26:03.412Z,12.05
2018-06-28T22:29:01.225Z,13.55
2018-06-28T22:32:01.813Z,12.05
2018-06-28T22:34:31.653Z,12.68
2018-06-28T22:37:01.790Z,14.90
2018-06-28T22:39:31.808Z,14.33
2018-06-28T22:42:01.314Z,13.83
2018-06-28T22:45:00.507Z,13.53
2018-06-28T22:47:32.348Z,12.28
2018-06-28T22:50:01.949Z,13.35
2018-06-28T22:52:32.688Z,11.93
2018-06-28T22:55:03.117Z,13.13
2018-06-28T22:57:35.868Z,14.15
2018-06-28T23:00:07.142Z,12.65
2018-06-28T23:02:45.845Z,13.55
2018-06-28T23:05:15.751Z,12.68
2018-06-28T23:07:45.371Z,12.50
2018-06-28T23:10:15.594Z,13.40
2018-06-28T23:12:48.635Z,13.25
2018-06-28T23:15:22.997Z,12.53
2018-06-28T23:17:54.591Z,13.75
2018-06-28T23:20:23.908Z,11.35
2018-06-28T23:22:55.953Z,14.13
2018-06-28T23:25:25.890Z,14.55
2018-06-28T23:27:55.518Z,13.88
2018-06-28T23:30:25.000Z,13.55
2018-06-28T23:33:00.113Z,13.10
2018-06-28T23:35:30.300Z,12.13
2018-06-28T23:37:59.786Z,13.08
2018-06-28T23:40:30.362Z,12.70
2018-06-28T23:43:01.816Z,12.55
2018-06-28T23:45:31.622Z,14.38
2018-06-28T23:48:01.829Z,12.40
2018-06-28T23:50:33.287Z,12.20
2018-06-28T23:53:03.435Z,13.32
2018-06-28T23:55:35.207Z,13.75
2018-06-28T23:58:06.569Z,12.98
